Time;durP1;ratioP1;P1;durP2;ratioP2;P2;SDS_P1;SDS_P2;PMS_P1;PMS_P2;Temp;Humidity;BMP_temperature;BMP_pressure;BME280_temperature;BME280_humidity;BME280_pressure;Samples;Min_cycle;Max_cycle;Signal;HPM_P1;HPM_P2
2022/01/21 00:00:45;;;;;;;;;5.75;5.00;;;;;5.67;67.60;103347.81;5010602;28;45391;-63
2022/01/21 00:03:10;;;;;;;;;6.00;5.75;;;;;5.65;67.67;103345.22;5011479;28;45302;-63
2022/01/21 00:05:36;;;;;;;;;4.00;3.25;;;;;5.59;67.53;103346.06;5013050;28;45715;-61
2022/01/21 00:08:01;;;;;;;;;6.75;6.00;;;;;5.59;67.61;103353.91;5011204;28;45710;-63
2022/01/21 00:10:27;;;;;;;;;7.50;5.00;;;;;5.56;67.33;103346.06;5011554;28;45462;-63
2022/01/21 00:12:53;;;;;;;;;3.25;3.00;;;;;5.55;68.34;103361.75;5011959;28;45527;-66
2022/01/21 00:15:20;;;;;;;;;6.25;2.75;;;;;5.53;67.90;103350.38;5009908;28;45423;-64
2022/01/21 00:17:46;;;;;;;;;7.75;5.00;;;;;5.52;67.97;103351.25;5011700;28;45589;-64
2022/01/21 00:31:08;;;;;;;;;6.75;6.25;;;;;5.37;68.40;103338.13;5008568;28;45590;-61
2022/01/21 00:33:34;;;;;;;;;10.50;6.75;;;;;5.33;68.09;103337.25;5006253;28;45608;-62
2022/01/21 00:36:00;;;;;;;;;5.25;2.50;;;;;5.30;68.16;103332.91;5007180;28;45784;-62
2022/01/21 00:38:29;;;;;;;;;12.50;6.00;;;;;5.32;69.09;103331.16;5005263;28;45948;-62
2022/01/21 00:41:01;;;;;;;;;15.25;11.00;;;;;5.35;68.58;103338.13;5009736;28;45972;-64
2022/01/21 00:43:32;;;;;;;;;13.25;9.00;;;;;5.37;69.14;103328.53;5010029;28;45907;-62
2022/01/21 00:46:02;;;;;;;;;12.00;8.25;;;;;5.40;67.80;103335.53;5003718;28;45550;-64
2022/01/21 00:48:27;;;;;;;;;12.25;7.00;;;;;5.40;69.35;103323.34;5007631;28;45506;-64
2022/01/21 00:50:53;;;;;;;;;9.00;7.50;;;;;5.42;68.71;103337.28;5006550;28;45493;-61
2022/01/21 00:53:19;;;;;;;;;13.50;7.50;;;;;5.41;68.88;103330.31;5004682;28;45380;-62
2022/01/21 00:55:45;;;;;;;;;8.25;8.25;;;;;5.40;68.44;103335.53;5005753;28;45432;-63
2022/01/21 00:58:10;;;;;;;;;9.25;6.00;;;;;5.39;68.55;103333.81;5006882;28;45345;-66
2022/01/21 01:00:36;;;;;;;;;11.50;8.50;;;;;5.38;68.90;103330.31;5006545;28;45446;-64
2022/01/21 01:03:03;;;;;;;;;9.50;8.00;;;;;5.37;68.31;103328.53;5003922;28;45979;-66
2022/01/21 01:05:29;;;;;;;;;8.25;6.00;;;;;5.38;69.38;103326.81;5013561;28;46373;-65
2022/01/21 01:07:55;;;;;;;;;5.25;5.00;;;;;5.38;68.32;103327.69;5007455;28;45580;-64
2022/01/21 01:10:37;;;;;;;;;9.50;5.50;;;;;5.34;68.40;103336.38;5009060;28;45523;-66
2022/01/21 01:21:17;;;;;;;;;7.75;5.00;;;;;5.23;68.49;103331.13;5009119;28;45760;-63
2022/01/21 01:29:23;;;;;;;;;13.50;5.00;;;;;5.22;68.70;103328.50;5008980;28;45614;-60
2022/01/21 01:31:51;;;;;;;;;10.50;5.00;;;;;5.20;68.97;103331.09;5009307;28;45816;-61
2022/01/21 01:34:17;;;;;;;;;11.75;8.75;;;;;5.18;69.13;103325.00;5007366;28;45688;-60
2022/01/21 01:36:45;;;;;;;;;7.00;5.25;;;;;5.15;69.60;103330.22;5005588;28;45749;-62
2022/01/21 01:41:56;;;;;;;;;6.50;5.00;;;;;5.09;69.24;103319.72;5006110;28;45423;-68
2022/01/21 01:49:50;;;;;;;;;5.00;4.00;;;;;5.05;68.90;103331.00;5008044;28;45427;-60
2022/01/21 01:52:17;;;;;;;;;4.50;4.50;;;;;5.02;69.24;103333.63;5007420;28;45436;-63
2022/01/21 01:54:47;;;;;;;;;12.00;4.25;;;;;5.01;69.33;103337.09;5006435;28;45502;-64
2022/01/21 01:57:13;;;;;;;;;8.50;4.75;;;;;4.98;69.45;103335.34;5010534;28;46131;-61
2022/01/21 01:59:38;;;;;;;;;15.00;6.75;;;;;4.98;69.33;103340.56;5007582;28;45493;-61
2022/01/21 02:02:12;;;;;;;;;9.50;6.00;;;;;4.97;69.77;103348.38;5007109;28;45464;-61
2022/01/21 02:04:38;;;;;;;;;9.00;5.25;;;;;4.95;69.83;103344.88;5009171;28;45840;-61
2022/01/21 02:07:04;;;;;;;;;8.00;5.00;;;;;4.93;69.05;103342.28;5010789;28;45406;-61
2022/01/21 02:09:30;;;;;;;;;4.00;0.00;;;;;4.94;70.38;103340.53;5009910;28;45390;-61
2022/01/21 02:11:56;;;;;;;;;10.75;5.50;;;;;4.91;69.86;103344.00;5010745;28;45372;-61
2022/01/21 02:14:27;;;;;;;;;9.75;2.00;;;;;4.92;69.81;103345.75;5010955;28;45375;-61
2022/01/21 02:22:16;;;;;;;;;6.00;5.00;;;;;4.90;69.68;103346.63;5012209;28;45313;-61
2022/01/21 02:24:52;;;;;;;;;7.50;4.00;;;;;4.85;69.90;103340.47;5013043;28;45383;-61
2022/01/21 02:27:18;;;;;;;;;8.25;6.50;;;;;4.86;69.99;103345.72;5013554;28;45539;-61
2022/01/21 02:29:59;;;;;;;;;6.50;4.00;;;;;4.86;69.28;103344.84;5014402;28;45473;-61
2022/01/21 02:32:25;;;;;;;;;5.50;5.50;;;;;4.82;70.06;103343.06;5015381;28;45406;-60
2022/01/21 02:34:50;;;;;;;;;7.50;5.50;;;;;4.82;70.04;103343.06;5013647;28;45304;-60
2022/01/21 02:37:19;;;;;;;;;9.00;7.50;;;;;4.80;70.30;103342.19;5012837;28;45382;-60
2022/01/21 02:39:46;;;;;;;;;4.50;3.25;;;;;4.75;69.75;103340.44;5013033;28;45518;-61
2022/01/21 02:42:12;;;;;;;;;7.00;6.25;;;;;4.74;69.62;103340.44;5011277;28;45483;-60
2022/01/21 02:44:39;;;;;;;;;6.00;4.75;;;;;4.71;70.68;103336.03;5014382;28;45265;-60
2022/01/21 02:47:06;;;;;;;;;15.00;5.25;;;;;4.69;70.33;103342.13;5011201;28;46657;-60
2022/01/21 02:49:31;;;;;;;;;6.00;4.50;;;;;4.69;70.31;103337.78;5012240;28;45211;-60
2022/01/21 02:52:02;;;;;;;;;8.75;6.50;;;;;4.68;70.68;103336.03;5012187;28;45483;-61
2022/01/21 02:54:36;;;;;;;;;11.00;7.50;;;;;4.68;70.29;103338.63;5012917;28;45237;-60
2022/01/21 02:57:06;;;;;;;;;5.75;1.00;;;;;4.69;70.62;103339.50;5014031;28;45514;-60
2022/01/21 02:59:32;;;;;;;;;8.75;5.00;;;;;4.70;70.56;103341.25;5013110;28;45254;-60
2022/01/21 03:01:59;;;;;;;;;8.25;6.50;;;;;4.68;69.98;103343.84;5011381;28;45335;-60
2022/01/21 03:04:54;;;;;;;;;5.75;4.00;;;;;4.69;70.47;103345.59;5012322;28;45411;-60
2022/01/21 03:07:11;;;;;;;;;10.25;5.00;;;;;4.69;70.39;103344.72;5012004;28;45424;-60
2022/01/21 03:09:36;;;;;;;;;9.00;5.25;;;;;4.68;70.24;103346.47;5013121;28;45344;-60
2022/01/21 03:12:02;;;;;;;;;10.00;7.50;;;;;4.69;71.05;103343.00;5013382;28;45243;-60
2022/01/21 03:14:28;;;;;;;;;15.00;6.75;;;;;4.70;70.63;103344.75;5013927;28;45348;-60
2022/01/21 03:16:53;;;;;;;;;4.50;4.50;;;;;4.69;70.51;103342.13;5011745;28;45314;-60
2022/01/21 03:19:19;;;;;;;;;6.25;4.25;;;;;4.67;70.28;103349.94;5013298;28;45242;-60
2022/01/21 03:21:45;;;;;;;;;13.50;8.75;;;;;4.65;70.33;103348.16;5013920;28;45415;-60
2022/01/21 03:24:11;;;;;;;;;11.00;6.00;;;;;4.64;70.21;103346.41;5011886;28;45322;-60
2022/01/21 03:26:36;;;;;;;;;8.25;6.25;;;;;4.64;70.07;103346.41;5010622;28;46648;-60
2022/01/21 03:29:04;;;;;;;;;8.25;5.25;;;;;4.63;70.92;103344.69;5009474;28;45392;-60
2022/01/21 03:31:31;;;;;;;;;9.25;6.00;;;;;4.61;71.12;103344.69;5009988;28;45467;-60
2022/01/21 03:33:59;;;;;;;;;11.25;7.00;;;;;4.61;70.61;103362.06;5010744;28;46453;-60
2022/01/21 03:36:26;;;;;;;;;1.25;0.50;;;;;4.60;70.42;103360.34;5010890;28;46011;-60
2022/01/21 03:38:52;;;;;;;;;15.50;5.00;;;;;4.59;69.96;103348.16;5011837;28;45408;-61
2022/01/21 03:41:18;;;;;;;;;7.75;4.50;;;;;4.61;70.23;103352.50;5010987;28;45505;-60
2022/01/21 03:43:43;;;;;;;;;6.75;4.50;;;;;4.67;70.56;103355.16;5010034;28;45387;-60
2022/01/21 03:46:09;;;;;;;;;8.00;7.00;;;;;4.71;70.50;103361.28;5010109;28;45297;-60
2022/01/21 03:48:35;;;;;;;;;6.00;4.75;;;;;4.75;71.17;103357.84;5011539;28;45408;-60
2022/01/21 03:51:01;;;;;;;;;9.50;6.00;;;;;4.79;70.37;103363.94;5011951;28;45373;-60
2022/01/21 03:53:26;;;;;;;;;6.75;6.00;;;;;4.82;69.98;103359.63;5010705;28;45239;-60
2022/01/21 03:55:52;;;;;;;;;8.50;4.75;;;;;4.83;70.40;103361.38;5011944;28;46077;-60
2022/01/21 03:58:17;;;;;;;;;10.25;5.00;;;;;4.85;69.79;103362.25;5013007;28;45268;-60
2022/01/21 04:00:54;;;;;;;;;6.50;5.75;;;;;4.87;70.15;103351.81;5011865;28;45178;-61
2022/01/21 04:03:21;;;;;;;;;12.25;9.25;;;;;4.86;70.45;103356.16;5011514;28;45246;-60
2022/01/21 04:05:46;;;;;;;;;6.00;5.25;;;;;4.86;70.58;103357.91;5010280;28;45238;-61
2022/01/21 04:08:12;;;;;;;;;9.25;5.00;;;;;4.83;69.73;103356.16;5013079;28;45346;-61
2022/01/21 04:10:41;;;;;;;;;8.25;6.00;;;;;4.80;69.60;103353.50;5012126;28;45324;-60
2022/01/21 04:13:15;;;;;;;;;7.00;5.00;;;;;4.82;70.33;103369.16;5011600;28;45457;-61
2022/01/21 04:15:48;;;;;;;;;12.75;7.25;;;;;4.82;69.81;103366.56;5013218;28;45547;-60
2022/01/21 04:18:15;;;;;;;;;8.50;5.50;;;;;4.82;70.54;103364.84;5012145;28;45493;-61
2022/01/21 04:20:41;;;;;;;;;10.00;5.00;;;;;4.82;70.12;103367.47;5011897;28;45394;-60
2022/01/21 04:23:08;;;;;;;;;9.75;6.50;;;;;4.79;69.97;103364.81;5012627;28;45509;-61
2022/01/21 04:25:33;;;;;;;;;6.50;4.50;;;;;4.76;69.71;103375.25;5010963;28;46253;-61
2022/01/21 04:27:59;;;;;;;;;13.50;5.00;;;;;4.72;70.20;103379.56;5009108;28;45378;-60
2022/01/21 04:30:24;;;;;;;;;7.75;5.00;;;;;4.70;70.59;103367.38;5010712;28;45459;-60
2022/01/21 04:32:50;;;;;;;;;6.00;4.50;;;;;4.71;70.32;103374.31;5008071;28;45432;-60
2022/01/21 04:35:16;;;;;;;;;8.25;7.00;;;;;4.67;70.27;103383.88;5009594;28;45416;-60
2022/01/21 04:37:49;;;;;;;;;6.00;5.00;;;;;4.62;70.69;103380.34;5011014;28;45222;-61
2022/01/21 04:40:17;;;;;;;;;8.25;4.00;;;;;4.63;70.43;103378.63;5012365;28;45771;-60
2022/01/21 04:48:11;;;;;;;;;4.50;4.00;;;;;4.70;70.77;103373.47;5013250;28;45320;-61
2022/01/21 04:51:11;;;;;;;;;8.75;4.00;;;;;4.74;70.65;103371.75;5009828;28;45118;-61
2022/01/21 04:53:36;;;;;;;;;4.75;4.00;;;;;4.78;70.48;103367.41;5013584;28;45435;-61
2022/01/21 04:56:02;;;;;;;;;9.00;5.00;;;;;4.79;70.08;103353.50;5008828;28;45682;-60
2022/01/21 04:58:27;;;;;;;;;9.00;4.25;;;;;4.79;70.63;103363.94;5009760;28;45418;-61
2022/01/21 05:00:52;;;;;;;;;9.00;4.50;;;;;4.77;70.95;103369.16;5011003;28;45902;-61
2022/01/21 05:03:18;;;;;;;;;9.00;5.75;;;;;4.76;70.38;103377.84;5011082;28;45438;-60
2022/01/21 05:05:43;;;;;;;;;8.75;5.00;;;;;4.78;70.68;103389.19;5011920;28;45400;-60
2022/01/21 05:08:20;;;;;;;;;12.00;8.00;;;;;4.81;71.15;103383.09;5011831;28;45434;-60
2022/01/21 05:10:46;;;;;;;;;8.00;5.25;;;;;4.81;70.74;103378.75;5011016;28;45400;-60
2022/01/21 05:13:14;;;;;;;;;9.25;6.00;;;;;4.86;70.03;103382.28;5009463;28;45321;-60
2022/01/21 05:15:59;;;;;;;;;7.50;4.25;;;;;4.85;70.56;103379.66;5012862;28;46431;-61
2022/01/21 05:18:25;;;;;;;;;8.25;8.00;;;;;4.88;70.56;103379.66;5007632;28;45316;-60
2022/01/21 05:20:51;;;;;;;;;5.25;5.00;;;;;4.92;70.56;103379.72;5009516;28;45432;-61
2022/01/21 05:23:16;;;;;;;;;9.00;6.00;;;;;4.98;70.19;103384.97;5008253;28;45404;-61
2022/01/21 05:25:42;;;;;;;;;10.25;6.75;;;;;5.04;70.91;103390.22;5010318;28;45430;-61
2022/01/21 05:28:07;;;;;;;;;5.00;4.00;;;;;5.01;70.24;103385.00;5011894;28;45426;-60
2022/01/21 05:30:33;;;;;;;;;8.25;2.00;;;;;5.02;70.35;103389.34;5011153;28;45519;-61
2022/01/21 05:32:59;;;;;;;;;11.50;5.00;;;;;5.07;70.10;103389.38;5012775;28;45434;-61
2022/01/21 05:35:25;;;;;;;;;6.25;5.00;;;;;5.04;70.22;103386.72;5009790;28;45511;-60
2022/01/21 05:37:50;;;;;;;;;3.75;2.00;;;;;5.02;70.47;103380.63;5009922;28;45415;-60
2022/01/21 05:40:17;;;;;;;;;6.00;4.75;;;;;4.99;69.70;103391.94;5011610;28;45306;-60
2022/01/21 05:42:43;;;;;;;;;6.75;2.50;;;;;4.96;70.56;103385.81;5007219;28;45223;-61
2022/01/21 05:47:36;;;;;;;;;5.00;5.00;;;;;4.89;70.36;103390.13;5011492;28;45388;-60
2022/01/21 05:50:02;;;;;;;;;8.25;3.00;;;;;4.90;70.61;103396.25;5011272;28;45444;-60
2022/01/21 05:52:35;;;;;;;;;5.75;1.50;;;;;4.90;70.15;103391.91;5011429;28;45191;-60
2022/01/21 05:55:01;;;;;;;;;9.75;5.25;;;;;4.87;69.79;103394.47;5011331;28;45606;-60
2022/01/21 05:57:26;;;;;;;;;6.75;4.00;;;;;4.85;69.57;103390.97;5011598;28;45519;-60
2022/01/21 05:59:52;;;;;;;;;10.50;5.25;;;;;4.81;69.74;103406.59;5013736;28;45349;-60
2022/01/21 06:02:18;;;;;;;;;4.75;4.00;;;;;4.75;69.51;103400.47;5013000;28;45360;-61
2022/01/21 06:04:46;;;;;;;;;8.50;5.00;;;;;4.70;70.29;103402.19;5014413;28;46239;-61
2022/01/21 06:07:12;;;;;;;;;8.00;5.25;;;;;4.65;70.61;103406.47;5014738;28;45360;-61
2022/01/21 06:09:38;;;;;;;;;4.25;4.00;;;;;4.64;70.45;103396.91;5011957;28;45282;-60
2022/01/21 06:12:05;;;;;;;;;4.50;4.50;;;;;4.69;70.39;103408.25;5012705;28;45436;-60
2022/01/21 06:14:31;;;;;;;;;5.25;5.00;;;;;4.73;71.09;103410.03;5015135;28;45395;-61
2022/01/21 06:16:56;;;;;;;;;8.25;6.00;;;;;4.75;70.62;103416.16;5013967;28;45351;-60
2022/01/21 06:19:22;;;;;;;;;9.50;5.00;;;;;4.77;70.58;103416.16;5012068;28;45353;-60
2022/01/21 06:21:47;;;;;;;;;6.75;6.00;;;;;4.82;70.22;103418.78;5012101;28;45354;-60
2022/01/21 06:24:13;;;;;;;;;7.25;4.00;;;;;4.87;69.96;103419.72;5023326;28;45332;-60
2022/01/21 06:26:38;;;;;;;;;5.00;5.00;;;;;4.91;70.09;103422.38;5015223;28;45254;-60
2022/01/21 06:29:04;;;;;;;;;8.25;5.25;;;;;4.93;70.30;103404.09;5023123;28;45248;-60
2022/01/21 06:31:30;;;;;;;;;8.00;6.00;;;;;4.95;70.27;103408.44;5016687;28;45444;-59
2022/01/21 06:33:57;;;;;;;;;5.00;3.00;;;;;4.95;70.27;103412.81;5008532;28;46070;-63
2022/01/21 06:36:22;;;;;;;;;11.25;5.75;;;;;4.92;69.59;103413.66;5015084;28;45426;-60
2022/01/21 06:38:48;;;;;;;;;10.75;5.00;;;;;4.87;69.68;103417.09;5009676;28;45368;-60
2022/01/21 06:41:14;;;;;;;;;9.50;4.00;;;;;4.85;70.01;103419.69;5019741;28;45467;-60
2022/01/21 06:43:40;;;;;;;;;5.00;4.25;;;;;4.84;70.03;103427.53;5015957;28;45510;-61
2022/01/21 06:46:07;;;;;;;;;6.75;5.00;;;;;4.85;69.81;103424.06;5004074;28;45321;-62
2022/01/21 06:48:33;;;;;;;;;9.50;5.00;;;;;4.89;69.92;103431.03;5015749;28;45235;-62
2022/01/21 06:50:58;;;;;;;;;4.75;4.50;;;;;4.89;69.41;103426.69;5011994;28;45457;-64
2022/01/21 06:53:24;;;;;;;;;9.25;5.25;;;;;4.94;69.72;103429.34;5003965;28;46158;-63
2022/01/21 06:55:49;;;;;;;;;9.75;8.00;;;;;4.95;70.10;103433.69;5008150;28;45414;-62
2022/01/21 06:58:15;;;;;;;;;4.75;2.00;;;;;4.93;70.16;103433.69;5009393;28;45325;-62
2022/01/21 07:00:40;;;;;;;;;5.25;2.00;;;;;4.95;70.56;103437.19;5009580;28;45542;-63
2022/01/21 07:03:06;;;;;;;;;7.00;4.75;;;;;4.97;70.00;103443.28;5011760;28;45405;-63
2022/01/21 07:05:31;;;;;;;;;8.00;5.00;;;;;4.97;69.67;103450.25;5007025;28;45174;-63
2022/01/21 07:07:58;;;;;;;;;8.00;5.00;;;;;4.97;70.49;103447.63;5014785;28;45528;-64
2022/01/21 07:10:25;;;;;;;;;5.50;5.00;;;;;4.96;69.63;103446.75;5015812;28;45288;-66
2022/01/21 07:12:51;;;;;;;;;9.00;6.00;;;;;4.99;70.10;103438.97;5009280;28;46607;-61
2022/01/21 07:15:18;;;;;;;;;13.00;5.00;;;;;4.98;70.05;103446.81;5017898;28;45406;-61
2022/01/21 07:17:44;;;;;;;;;9.00;4.25;;;;;4.97;70.56;103448.50;5008219;28;45633;-61
2022/01/21 07:20:10;;;;;;;;;4.00;4.00;;;;;4.99;70.19;103459.88;5002769;28;45608;-61
2022/01/21 07:22:36;;;;;;;;;9.00;4.75;;;;;4.98;69.65;103459.84;5002396;28;45353;-61
2022/01/21 07:25:02;;;;;;;;;12.50;6.50;;;;;5.00;70.52;103461.59;5002035;28;45420;-61
2022/01/21 07:27:27;;;;;;;;;6.25;5.00;;;;;5.07;70.53;103464.28;5009829;28;45425;-61
2022/01/21 07:29:53;;;;;;;;;6.50;2.00;;;;;5.07;70.21;103462.53;5014282;28;45557;-61
2022/01/21 07:32:18;;;;;;;;;6.75;5.00;;;;;5.07;69.79;103470.38;5005708;28;46453;-61
2022/01/21 07:34:44;;;;;;;;;4.50;4.00;;;;;5.07;70.53;103461.66;5025111;28;45308;-61
2022/01/21 07:37:09;;;;;;;;;19.25;7.25;;;;;5.05;70.66;103466.84;5024618;28;45324;-61
2022/01/21 07:39:35;;;;;;;;;7.50;5.00;;;;;5.03;70.29;103472.06;5021909;28;45265;-61
2022/01/21 07:42:00;;;;;;;;;7.75;7.25;;;;;4.98;69.95;103467.69;5020460;28;45687;-61
2022/01/21 07:44:26;;;;;;;;;8.75;5.75;;;;;4.98;69.90;103478.16;5020689;28;45396;-61
2022/01/21 07:46:52;;;;;;;;;5.75;5.00;;;;;4.95;70.71;103473.75;5021428;28;45270;-61
2022/01/21 07:49:17;;;;;;;;;7.25;4.50;;;;;4.94;70.20;103473.75;5021993;28;45576;-61
2022/01/21 07:51:43;;;;;;;;;11.50;7.25;;;;;4.99;69.99;103475.53;5021232;28;45698;-61
2022/01/21 07:54:09;;;;;;;;;9.00;7.50;;;;;5.03;70.13;103482.53;5027640;28;45312;-61
2022/01/21 07:56:35;;;;;;;;;8.00;6.25;;;;;5.11;71.01;103486.94;5021451;28;45482;-61
2022/01/21 07:59:04;;;;;;;;;8.75;7.25;;;;;5.19;70.20;103491.34;5021844;28;45502;-61
2022/01/21 08:01:29;;;;;;;;;9.00;7.75;;;;;5.24;69.58;103501.84;5021305;28;46103;-61
2022/01/21 08:03:55;;;;;;;;;12.00;8.25;;;;;5.28;69.59;103493.16;5021578;28;45323;-61
2022/01/21 08:06:21;;;;;;;;;10.00;8.00;;;;;5.30;69.70;103497.53;5021581;28;45375;-61
2022/01/21 08:08:46;;;;;;;;;10.50;5.75;;;;;5.35;69.90;103504.53;5021787;28;45292;-61
2022/01/21 08:11:12;;;;;;;;;13.75;9.75;;;;;5.37;69.03;103503.66;5020798;28;45650;-61
2022/01/21 08:13:37;;;;;;;;;12.50;8.75;;;;;5.42;69.53;103507.19;5021041;28;45383;-61
2022/01/21 08:16:03;;;;;;;;;13.50;7.00;;;;;5.44;69.25;103509.81;5018651;28;45283;-61
2022/01/21 08:18:29;;;;;;;;;9.50;8.00;;;;;5.39;69.94;103503.69;5020185;28;45325;-61
2022/01/21 08:20:54;;;;;;;;;15.50;6.75;;;;;5.39;69.73;103509.78;5021084;28;45317;-61
2022/01/21 08:23:20;;;;;;;;;14.00;9.00;;;;;5.40;69.77;103500.22;5021444;28;45321;-61
2022/01/21 08:25:46;;;;;;;;;11.25;7.50;;;;;5.39;69.02;103508.94;5020972;28;45368;-61
2022/01/21 08:28:11;;;;;;;;;13.00;8.00;;;;;5.39;69.63;103507.19;5004581;28;45453;-60
2022/01/21 08:30:38;;;;;;;;;13.25;8.25;;;;;5.41;69.62;103502.84;5016652;28;45517;-63
2022/01/21 08:33:04;;;;;;;;;9.25;7.25;;;;;5.43;69.73;103505.44;5020837;28;45503;-63
2022/01/21 08:35:31;;;;;;;;;8.00;6.25;;;;;5.44;69.64;103512.41;5020976;28;45320;-63
2022/01/21 08:37:56;;;;;;;;;10.25;9.50;;;;;5.48;69.38;103512.47;5021261;28;45407;-61
2022/01/21 08:40:22;;;;;;;;;13.75;9.75;;;;;5.54;69.36;103511.63;5019570;28;45431;-61
2022/01/21 08:42:49;;;;;;;;;8.50;6.00;;;;;5.60;70.11;103503.81;5021166;28;45221;-65
2022/01/21 08:45:16;;;;;;;;;15.00;10.50;;;;;5.65;69.93;103511.69;5020737;28;45323;-66
2022/01/21 08:47:42;;;;;;;;;21.00;14.00;;;;;5.67;69.35;103502.97;5021152;28;45235;-66
2022/01/21 08:50:11;;;;;;;;;30.75;22.50;;;;;5.69;69.56;103511.72;5020859;28;46157;-65
2022/01/21 08:52:37;;;;;;;;;20.25;16.75;;;;;5.74;68.75;103512.59;5020836;28;45411;-66
2022/01/21 08:55:11;;;;;;;;;16.25;9.25;;;;;5.82;69.30;103510.03;5020440;28;45311;-65
2022/01/21 08:57:39;;;;;;;;;14.75;11.50;;;;;5.83;69.26;103503.94;5021110;28;45530;-65
2022/01/21 09:00:20;;;;;;;;;12.25;9.00;;;;;5.88;69.48;103510.94;5020482;28;45494;-65
2022/01/21 09:02:46;;;;;;;;;11.25;9.50;;;;;5.88;68.43;103513.56;5018989;28;45412;-65
2022/01/21 09:05:12;;;;;;;;;13.75;9.25;;;;;5.91;69.21;103509.22;5011213;28;45257;-65
2022/01/21 09:07:38;;;;;;;;;21.25;13.75;;;;;5.98;69.66;103509.28;5018799;28;45411;-65
2022/01/21 09:10:05;;;;;;;;;11.00;9.25;;;;;6.04;68.54;103506.69;5019188;28;46021;-65
2022/01/21 09:12:31;;;;;;;;;18.50;14.25;;;;;6.10;69.10;103521.53;5018569;28;45502;-65
2022/01/21 09:14:56;;;;;;;;;16.50;13.00;;;;;6.10;69.16;103526.78;5019709;28;45412;-65
2022/01/21 09:17:22;;;;;;;;;9.50;9.50;;;;;6.07;68.75;103522.38;5018076;28;45454;-65
2022/01/21 09:19:48;;;;;;;;;12.00;10.00;;;;;6.13;68.41;103529.41;5009375;28;45491;-65
2022/01/21 09:22:13;;;;;;;;;13.50;11.00;;;;;6.14;68.47;103528.53;5015788;28;45324;-65
2022/01/21 09:24:39;;;;;;;;;17.75;13.00;;;;;6.22;68.38;103524.19;5019567;28;45262;-65
2022/01/21 09:27:05;;;;;;;;;24.75;12.25;;;;;6.30;68.88;103524.22;5020119;28;45390;-65
2022/01/21 09:29:32;;;;;;;;;21.75;11.25;;;;;6.41;68.77;103527.75;5011065;28;45359;-65
2022/01/21 09:31:59;;;;;;;;;21.75;17.25;;;;;6.51;68.67;103534.75;5019261;28;45375;-65
2022/01/21 09:34:27;;;;;;;;;21.75;14.00;;;;;6.56;68.51;103540.03;5024012;28;45352;-65
2022/01/21 09:36:55;;;;;;;;;17.00;10.00;;;;;6.59;68.50;103553.97;5023825;28;45498;-65
2022/01/21 09:39:20;;;;;;;;;21.25;10.25;;;;;6.57;67.68;103552.25;5023036;28;46311;-65
2022/01/21 09:41:46;;;;;;;;;12.50;11.75;;;;;6.54;68.25;103553.09;5023175;28;45400;-65
2022/01/21 09:44:17;;;;;;;;;13.75;9.50;;;;;6.58;67.82;103567.09;5024134;28;45440;-65
2022/01/21 09:46:46;;;;;;;;;8.75;8.25;;;;;6.57;68.00;103560.09;5023585;28;45325;-65
2022/01/21 09:49:28;;;;;;;;;12.00;11.00;;;;;6.51;68.01;103566.19;5023547;28;46240;-65
2022/01/21 09:51:59;;;;;;;;;11.50;7.25;;;;;6.50;68.09;103566.19;5023538;28;45324;-65
2022/01/21 09:54:29;;;;;;;;;17.75;12.25;;;;;6.49;68.09;103560.06;5023578;28;45216;-65
2022/01/21 09:56:56;;;;;;;;;10.50;9.50;;;;;6.55;68.20;103567.06;5023371;28;45554;-65
2022/01/21 09:59:25;;;;;;;;;14.50;10.00;;;;;6.55;68.02;103567.06;5013464;28;45350;-65
2022/01/21 10:01:54;;;;;;;;;11.25;9.75;;;;;6.61;68.67;103574.94;5022396;28;45401;-65
2022/01/21 10:04:24;;;;;;;;;22.50;10.00;;;;;6.69;68.20;103583.69;5022665;28;45383;-65
2022/01/21 10:06:50;;;;;;;;;14.25;9.50;;;;;6.74;67.71;103576.72;5023216;28;45484;-66
2022/01/21 10:09:16;;;;;;;;;13.25;10.25;;;;;6.74;67.79;103573.22;5021829;28;46220;-65
2022/01/21 10:11:48;;;;;;;;;17.50;12.25;;;;;6.77;67.87;103581.09;5023004;28;45261;-65
2022/01/21 10:14:25;;;;;;;;;14.50;12.25;;;;;6.78;68.23;103585.44;5022223;28;45308;-65
2022/01/21 10:16:51;;;;;;;;;13.50;10.00;;;;;6.79;67.40;103585.44;5023286;28;45266;-65
2022/01/21 10:19:27;;;;;;;;;13.25;8.25;;;;;6.80;67.97;103581.13;5019246;28;45248;-65
2022/01/21 10:22:05;;;;;;;;;16.25;13.25;;;;;6.86;67.84;103575.84;5021434;28;45362;-65
2022/01/21 10:24:34;;;;;;;;;13.50;11.00;;;;;6.91;67.41;103575.00;5020122;28;45437;-65
2022/01/21 10:27:00;;;;;;;;;11.00;9.00;;;;;6.93;67.64;103575.88;5020883;28;45349;-65
2022/01/21 10:29:40;;;;;;;;;7.50;6.25;;;;;6.93;67.56;103583.72;5011900;28;45393;-65
2022/01/21 10:32:07;;;;;;;;;13.75;9.50;;;;;7.01;67.52;103586.38;5019858;28;45536;-65
2022/01/21 10:34:43;;;;;;;;;14.75;10.50;;;;;7.08;67.61;103584.63;5021775;28;45273;-65
2022/01/21 10:37:36;;;;;;;;;14.25;12.25;;;;;7.12;67.37;103581.16;5023071;28;45264;-65
2022/01/21 10:40:09;;;;;;;;;12.00;8.50;;;;;7.04;66.97;103581.16;5020625;28;45985;-65
2022/01/21 10:42:35;;;;;;;;;15.25;11.50;;;;;7.05;67.51;103569.78;5011966;28;45371;-65
2022/01/21 10:45:03;;;;;;;;;15.00;12.25;;;;;7.06;67.14;103574.16;5022740;28;45297;-65
2022/01/21 10:47:39;;;;;;;;;17.75;13.25;;;;;7.15;67.20;103576.78;5022686;28;45412;-65
2022/01/21 10:50:18;;;;;;;;;16.25;13.50;;;;;7.22;67.50;103578.53;5022434;28;45244;-65
2022/01/21 10:52:50;;;;;;;;;18.25;12.25;;;;;7.31;66.94;103579.41;5022858;28;45526;-65
2022/01/21 10:55:32;;;;;;;;;14.25;14.00;;;;;7.37;67.28;103574.16;5022364;28;45214;-65
2022/01/21 10:58:13;;;;;;;;;17.25;11.75;;;;;7.41;66.99;103575.88;5022677;28;45221;-66
2022/01/21 11:01:11;;;;;;;;;14.00;13.50;;;;;7.46;66.54;103574.16;5021221;28;48059;-65
2022/01/21 11:04:06;;;;;;;;;15.00;12.25;;;;;7.47;66.79;103563.66;5006849;28;45367;-65
2022/01/21 11:06:46;;;;;;;;;20.25;16.50;;;;;7.54;66.75;103559.28;5022366;28;45369;-65
2022/01/21 11:09:21;;;;;;;;;32.25;20.50;;;;;7.62;66.47;103572.38;5020804;28;45253;-65
2022/01/21 11:11:50;;;;;;;;;22.00;16.50;;;;;7.68;66.29;103570.63;5021117;28;47305;-65
2022/01/21 11:14:18;;;;;;;;;20.50;11.75;;;;;7.74;66.25;103573.25;5022090;28;45489;-65
2022/01/21 11:16:46;;;;;;;;;16.50;11.50;;;;;7.82;66.06;103563.59;5019748;28;45266;-65
2022/01/21 11:19:16;;;;;;;;;17.50;14.50;;;;;7.88;66.11;103561.81;5022347;28;45391;-65
2022/01/21 11:21:53;;;;;;;;;16.50;12.50;;;;;7.86;65.79;103560.97;5022293;28;46087;-64
2022/01/21 11:24:21;;;;;;;;;22.50;14.00;;;;;7.91;65.71;103562.72;5018609;28;45435;-64
2022/01/21 11:27:13;;;;;;;;;19.25;13.00;;;;;7.91;66.03;103569.72;5022129;28;45489;-64
2022/01/21 11:29:41;;;;;;;;;11.25;7.00;;;;;7.82;65.18;103578.47;5013426;28;45166;-66
2022/01/21 11:32:07;;;;;;;;;13.00;7.00;;;;;7.73;65.24;103568.84;5021344;28;45247;-65
2022/01/21 11:34:34;;;;;;;;;11.75;8.50;;;;;7.67;65.23;103561.00;5006126;28;45518;-64
2022/01/21 11:37:00;;;;;;;;;15.50;10.00;;;;;7.65;65.55;103562.75;5000905;28;45419;-65
2022/01/21 11:39:27;;;;;;;;;10.75;7.25;;;;;7.69;65.19;103555.75;5021323;28;45785;-62
2022/01/21 11:41:56;;;;;;;;;6.75;5.00;;;;;7.66;65.53;103555.75;5018004;28;46153;-64
2022/01/21 11:44:25;;;;;;;;;11.25;8.50;;;;;7.69;65.36;103558.38;5001864;28;45321;-62
2022/01/21 11:47:14;;;;;;;;;11.50;10.00;;;;;7.68;64.94;103562.75;5000808;28;45400;-62
2022/01/21 11:49:43;;;;;;;;;18.50;11.00;;;;;7.63;64.86;103548.75;5002147;28;45344;-64
2022/01/21 11:52:14;;;;;;;;;14.50;11.25;;;;;7.61;65.14;103542.66;5008539;28;47359;-61
2022/01/21 11:54:41;;;;;;;;;15.00;7.25;;;;;7.65;64.88;103543.50;5005229;28;45252;-62
2022/01/21 11:57:07;;;;;;;;;11.50;9.50;;;;;7.69;65.49;103543.50;5009558;28;45292;-62
2022/01/21 11:59:35;;;;;;;;;7.25;3.00;;;;;7.79;64.53;103544.34;5008776;28;45422;-62
2022/01/21 12:02:26;;;;;;;;;7.25;6.00;;;;;7.84;64.76;103553.09;5002335;28;45399;-63
2022/01/21 12:04:59;;;;;;;;;13.25;8.00;;;;;7.91;64.69;103553.97;5014643;28;45481;-63
2022/01/21 12:07:37;;;;;;;;;9.00;7.25;;;;;8.00;64.44;103548.69;5011407;28;45451;-67
2022/01/21 12:10:18;;;;;;;;;14.00;7.00;;;;;8.05;64.19;103553.00;5001595;28;45237;-62
2022/01/21 12:12:55;;;;;;;;;8.00;8.00;;;;;7.97;64.09;103560.03;5000901;28;45394;-65
2022/01/21 12:15:32;;;;;;;;;11.25;8.25;;;;;7.97;64.26;103557.41;5011303;28;45392;-64
2022/01/21 12:20:59;;;;;;;;;12.00;10.50;;;;;7.97;64.86;103549.53;5001577;28;45262;-64
2022/01/21 12:23:26;;;;;;;;;11.25;10.50;;;;;8.07;64.94;103538.16;5001353;28;46310;-63